F/V Anna Mamm Mari — FOHD — position and weather

sailwx.info

Track history (hours):
 
Tides and Currents Weather Stations Pressure Air Temp Water Temp Dewpoint Dewpoint Depression Visibility Wind Speed Wind Dir Waves Ship Positions

F/V Anna Mamm Mari

Last reported at 2017-Feb-22 16:25 UTC. Time now 2017-Feb-23 11:50 UTC.
Position N 46°16' W 002°37'.

Length 17 m.

Type: Fishing. MMSI: 228393000.

Date/timePositionNaut miles runAvg speedWind from/ knotsBaromVisibWave heightAir tempDewpointWater temp
2017-Feb-22 16:25N 46°16' W 002°37'9 2.1
2017-Feb-22 12:05N 46°24' W 002°31'1 0.6
2017-Feb-22 11:15N 46°24' W 002°32'2 0.9
2017-Feb-22 09:34N 46°25' W 002°30'0 0.3
2017-Feb-22 08:08N 46°25' W 002°31'1 1.3
2017-Feb-22 07:26N 46°24' W 002°30'0 0.1
2017-Feb-22 04:34N 46°24' W 002°30'22 0.8
2017-Feb-21 00:33N 46°28' W 001°58'7 7.4
2017-Feb-20 23:33N 46°29' W 001°47'1 0.6
2017-Feb-20 22:33N 46°30' W 001°47'0 0.0
2017-Feb-20 21:33N 46°30' W 001°47'0 0.2
2017-Feb-20 20:34N 46°30' W 001°47'7 6.7
2017-Feb-20 19:33N 46°28' W 001°57'9 9.1
2017-Feb-20 18:32N 46°27' W 002°10'17 0.6
2017-Feb-19 12:29N 46°27' W 002°35'0 0.1
2017-Feb-19 10:15N 46°27' W 002°35'1 0.3
2017-Feb-19 05:10N 46°26' W 002°34'2 1.4
2017-Feb-19 03:31N 46°28' W 002°36'1 0.6
2017-Feb-19 02:30N 46°27' W 002°35'0 0.1
2017-Feb-19 01:26N 46°27' W 002°35'6 0.5
2017-Feb-18 14:32N 46°30' W 002°42'8 8.4
2017-Feb-18 13:33N 46°35' W 002°52'4 2.2
2017-Feb-18 11:32N 46°39' W 002°56'3 1.5
2017-Feb-18 09:16N 46°40' W 002°52'2 1.2
2017-Feb-18 07:31N 46°38' W 002°53'2 1.7
2017-Feb-18 06:34N 46°37' W 002°52'2 1.6
2017-Feb-18 05:33N 46°38' W 002°53'2 1.6
2017-Feb-18 04:32N 46°40' W 002°54'2 0.2
2017-Feb-17 21:18N 46°38' W 002°55'0 0.1
2017-Feb-17 20:33N 46°38' W 002°55'0 0.1
2017-Feb-17 17:20N 46°38' W 002°54'2 2.5
2017-Feb-17 16:33N 46°39' W 002°57'3 3.0
2017-Feb-17 15:26N 46°40' W 002°52'1 0.1
2017-Feb-17 09:30N 46°39' W 002°53'2 1.6
2017-Feb-17 08:33N 46°38' W 002°52'1 0.1
2017-Feb-17 03:32N 46°38' W 002°53'32 7.1
2017-Feb-16 23:05N 46°31' W 002°08'5 9.0
2017-Feb-16 22:33N 46°30' W 002°01'9 8.6
2017-Feb-16 21:33N 46°28' W 001°49'2 1.8
2017-Feb-16 20:34N 46°30' W 001°47'0 0.0
2017-Feb-16 19:34N 46°30' W 001°47'0 0.2
2017-Feb-16 18:33N 46°30' W 001°47'5 5.2
2017-Feb-16 17:33N 46°29' W 001°55'9 9.3
2017-Feb-16 16:34N 46°31' W 002°08'  
2017-Feb-13 05:33N 46°30' W 002°04'8 8.3
2017-Feb-13 04:33N 46°29' W 001°52'3 3.5
2017-Feb-13 03:33N 46°30' W 001°48'0 0.0
2017-Feb-13 02:33N 46°30' W 001°47'0 0.2
2017-Feb-13 01:33N 46°30' W 001°47'0 0.1
2017-Feb-13 00:33N 46°30' W 001°47'0 0.0
2017-Feb-12 23:33N 46°30' W 001°47'0 0.0
2017-Feb-12 22:33N 46°30' W 001°47'0 0.0
2017-Feb-12 21:33N 46°30' W 001°47'0 0.0
2017-Feb-12 20:33N 46°30' W 001°47'0 0.0
2017-Feb-12 19:33N 46°30' W 001°47'3 3.0
2017-Feb-12 18:33N 46°28' W 001°51'7 6.9
2017-Feb-12 17:33N 46°29' W 002°01'  
Track history (hours):
 
Tides and Currents Weather Stations Pressure Air Temp Water Temp Dewpoint Dewpoint Depression Visibility Wind Speed Wind Dir Waves Ship Positions

F/V Anna Mamm Mari

Last reported at 2017-Feb-22 16:25 UTC. Time now 2017-Feb-23 11:50 UTC.
Position N 46°16' W 002°37'.

Length 17 m.

Type: Fishing. MMSI: 228393000.

Date/timePositionNaut miles runAvg speedWind from/ knotsBaromVisibWave heightAir tempDewpointWater temp
2017-Feb-22 16:25N 46°16' W 002°37'9 2.1
2017-Feb-22 12:05N 46°24' W 002°31'1 0.6
2017-Feb-22 11:15N 46°24' W 002°32'2 0.9
2017-Feb-22 09:34N 46°25' W 002°30'0 0.3
2017-Feb-22 08:08N 46°25' W 002°31'1 1.3
2017-Feb-22 07:26N 46°24' W 002°30'0 0.1
2017-Feb-22 04:34N 46°24' W 002°30'22 0.8
2017-Feb-21 00:33N 46°28' W 001°58'7 7.4
2017-Feb-20 23:33N 46°29' W 001°47'1 0.6
2017-Feb-20 22:33N 46°30' W 001°47'0 0.0
2017-Feb-20 21:33N 46°30' W 001°47'0 0.2
2017-Feb-20 20:34N 46°30' W 001°47'7 6.7
2017-Feb-20 19:33N 46°28' W 001°57'9 9.1
2017-Feb-20 18:32N 46°27' W 002°10'17 0.6
2017-Feb-19 12:29N 46°27' W 002°35'0 0.1
2017-Feb-19 10:15N 46°27' W 002°35'1 0.3
2017-Feb-19 05:10N 46°26' W 002°34'2 1.4
2017-Feb-19 03:31N 46°28' W 002°36'1 0.6
2017-Feb-19 02:30N 46°27' W 002°35'0 0.1
2017-Feb-19 01:26N 46°27' W 002°35'6 0.5
2017-Feb-18 14:32N 46°30' W 002°42'8 8.4
2017-Feb-18 13:33N 46°35' W 002°52'4 2.2
2017-Feb-18 11:32N 46°39' W 002°56'3 1.5
2017-Feb-18 09:16N 46°40' W 002°52'2 1.2
2017-Feb-18 07:31N 46°38' W 002°53'2 1.7
2017-Feb-18 06:34N 46°37' W 002°52'2 1.6
2017-Feb-18 05:33N 46°38' W 002°53'2 1.6
2017-Feb-18 04:32N 46°40' W 002°54'2 0.2
2017-Feb-17 21:18N 46°38' W 002°55'0 0.1
2017-Feb-17 20:33N 46°38' W 002°55'0 0.1
2017-Feb-17 17:20N 46°38' W 002°54'2 2.5
2017-Feb-17 16:33N 46°39' W 002°57'3 3.0
2017-Feb-17 15:26N 46°40' W 002°52'1 0.1
2017-Feb-17 09:30N 46°39' W 002°53'2 1.6
2017-Feb-17 08:33N 46°38' W 002°52'1 0.1
2017-Feb-17 03:32N 46°38' W 002°53'32 7.1
2017-Feb-16 23:05N 46°31' W 002°08'5 9.0
2017-Feb-16 22:33N 46°30' W 002°01'9 8.6
2017-Feb-16 21:33N 46°28' W 001°49'2 1.8
2017-Feb-16 20:34N 46°30' W 001°47'0 0.0
2017-Feb-16 19:34N 46°30' W 001°47'0 0.2
2017-Feb-16 18:33N 46°30' W 001°47'5 5.2
2017-Feb-16 17:33N 46°29' W 001°55'9 9.3
2017-Feb-16 16:34N 46°31' W 002°08'  
2017-Feb-13 05:33N 46°30' W 002°04'8 8.3
2017-Feb-13 04:33N 46°29' W 001°52'3 3.5
2017-Feb-13 03:33N 46°30' W 001°48'0 0.0
2017-Feb-13 02:33N 46°30' W 001°47'0 0.2
2017-Feb-13 01:33N 46°30' W 001°47'0 0.1
2017-Feb-13 00:33N 46°30' W 001°47'0 0.0
2017-Feb-12 23:33N 46°30' W 001°47'0 0.0
2017-Feb-12 22:33N 46°30' W 001°47'0 0.0
2017-Feb-12 21:33N 46°30' W 001°47'0 0.0
2017-Feb-12 20:33N 46°30' W 001°47'0 0.0
2017-Feb-12 19:33N 46°30' W 001°47'3 3.0
2017-Feb-12 18:33N 46°28' W 001°51'7 6.9
2017-Feb-12 17:33N 46°29' W 002°01'  

Dump ship's entire track history